sensor_id;sensor_type;location;lat;lon;timestamp;temperature;humidity
80212;DHT22;70434;37.956;23.722;2023-07-31T00:00:34;32.70;28.20
80212;DHT22;70434;37.956;23.722;2023-07-31T00:02:59;32.80;28.10
80212;DHT22;70434;37.956;23.722;2023-07-31T00:05:25;32.80;28.10
80212;DHT22;70434;37.956;23.722;2023-07-31T00:07:53;32.80;28.10
80212;DHT22;70434;37.956;23.722;2023-07-31T00:10:20;32.70;28.30
80212;DHT22;70434;37.956;23.722;2023-07-31T00:12:46;32.80;28.40
80212;DHT22;70434;37.956;23.722;2023-07-31T00:15:14;32.80;27.50
80212;DHT22;70434;37.956;23.722;2023-07-31T00:17:40;32.80;27.10
80212;DHT22;70434;37.956;23.722;2023-07-31T00:20:06;32.60;27.20
80212;DHT22;70434;37.956;23.722;2023-07-31T00:22:32;32.70;26.30
80212;DHT22;70434;37.956;23.722;2023-07-31T00:24:58;32.70;25.50
80212;DHT22;70434;37.956;23.722;2023-07-31T00:27:25;32.70;25.40
80212;DHT22;70434;37.956;23.722;2023-07-31T00:29:51;32.60;25.20
80212;DHT22;70434;37.956;23.722;2023-07-31T00:32:16;32.60;25.00
80212;DHT22;70434;37.956;23.722;2023-07-31T00:34:42;32.60;25.40
80212;DHT22;70434;37.956;23.722;2023-07-31T00:37:10;32.50;24.70
80212;DHT22;70434;37.956;23.722;2023-07-31T00:39:36;32.40;24.80
80212;DHT22;70434;37.956;23.722;2023-07-31T00:42:02;32.40;24.50
80212;DHT22;70434;37.956;23.722;2023-07-31T00:44:28;32.30;24.20
80212;DHT22;70434;37.956;23.722;2023-07-31T00:46:54;32.20;24.50
80212;DHT22;70434;37.956;23.722;2023-07-31T00:49:21;32.10;25.40
80212;DHT22;70434;37.956;23.722;2023-07-31T00:51:47;31.90;24.70
80212;DHT22;70434;37.956;23.722;2023-07-31T00:54:12;31.90;24.80
80212;DHT22;70434;37.956;23.722;2023-07-31T00:56:38;31.90;24.80
80212;DHT22;70434;37.956;23.722;2023-07-31T00:59:05;31.80;24.90
80212;DHT22;70434;37.956;23.722;2023-07-31T01:01:31;31.80;25.00
80212;DHT22;70434;37.956;23.722;2023-07-31T01:03:57;31.80;25.10
80212;DHT22;70434;37.956;23.722;2023-07-31T01:07:01;31.80;25.10
80212;DHT22;70434;37.956;23.722;2023-07-31T01:12:03;31.80;25.10
80212;DHT22;70434;37.956;23.722;2023-07-31T01:14:29;31.90;25.20
80212;DHT22;70434;37.956;23.722;2023-07-31T01:16:55;31.90;25.20
80212;DHT22;70434;37.956;23.722;2023-07-31T01:19:25;31.80;25.10
80212;DHT22;70434;37.956;23.722;2023-07-31T01:22:04;31.90;24.80
80212;DHT22;70434;37.956;23.722;2023-07-31T01:27:30;31.90;25.30
80212;DHT22;70434;37.956;23.722;2023-07-31T01:30:22;32.00;24.70
80212;DHT22;70434;37.956;23.722;2023-07-31T01:32:52;32.00;24.60
80212;DHT22;70434;37.956;23.722;2023-07-31T01:35:18;31.90;24.60
80212;DHT22;70434;37.956;23.722;2023-07-31T01:37:45;31.90;24.50
80212;DHT22;70434;37.956;23.722;2023-07-31T01:40:13;31.90;24.70
80212;DHT22;70434;37.956;23.722;2023-07-31T01:42:39;31.80;25.00
80212;DHT22;70434;37.956;23.722;2023-07-31T01:45:05;31.70;25.00
80212;DHT22;70434;37.956;23.722;2023-07-31T01:47:31;31.70;25.00
80212;DHT22;70434;37.956;23.722;2023-07-31T01:49:59;31.60;25.20
80212;DHT22;70434;37.956;23.722;2023-07-31T01:52:27;31.50;25.30
80212;DHT22;70434;37.956;23.722;2023-07-31T01:54:54;31.60;25.40
80212;DHT22;70434;37.956;23.722;2023-07-31T01:57:19;31.60;25.30
80212;DHT22;70434;37.956;23.722;2023-07-31T01:59:45;31.60;26.40
80212;DHT22;70434;37.956;23.722;2023-07-31T02:02:11;31.60;25.60
80212;DHT22;70434;37.956;23.722;2023-07-31T02:04:36;31.60;25.60
80212;DHT22;70434;37.956;23.722;2023-07-31T02:07:04;31.60;25.50
80212;DHT22;70434;37.956;23.722;2023-07-31T02:09:29;31.60;25.30
80212;DHT22;70434;37.956;23.722;2023-07-31T02:11:55;31.60;25.40
80212;DHT22;70434;37.956;23.722;2023-07-31T02:14:21;31.60;25.40
80212;DHT22;70434;37.956;23.722;2023-07-31T02:16:46;31.70;25.40
80212;DHT22;70434;37.956;23.722;2023-07-31T02:19:12;31.70;25.40
80212;DHT22;70434;37.956;23.722;2023-07-31T02:21:38;31.70;25.20
80212;DHT22;70434;37.956;23.722;2023-07-31T02:24:04;31.70;25.10
80212;DHT22;70434;37.956;23.722;2023-07-31T02:26:30;31.70;25.10
80212;DHT22;70434;37.956;23.722;2023-07-31T02:28:55;31.60;25.20
80212;DHT22;70434;37.956;23.722;2023-07-31T02:31:21;31.60;25.30
80212;DHT22;70434;37.956;23.722;2023-07-31T02:33:47;31.50;25.30
80212;DHT22;70434;37.956;23.722;2023-07-31T02:36:12;31.60;25.30
80212;DHT22;70434;37.956;23.722;2023-07-31T02:38:40;31.60;25.30
80212;DHT22;70434;37.956;23.722;2023-07-31T02:41:05;31.50;25.70
80212;DHT22;70434;37.956;23.722;2023-07-31T02:43:31;31.50;25.80
80212;DHT22;70434;37.956;23.722;2023-07-31T02:45:57;31.50;25.70
80212;DHT22;70434;37.956;23.722;2023-07-31T02:48:23;31.50;25.70
80212;DHT22;70434;37.956;23.722;2023-07-31T02:50:48;31.50;25.90
80212;DHT22;70434;37.956;23.722;2023-07-31T02:53:14;31.50;26.00
80212;DHT22;70434;37.956;23.722;2023-07-31T02:55:42;31.50;26.00
80212;DHT22;70434;37.956;23.722;2023-07-31T02:58:08;31.50;26.10
80212;DHT22;70434;37.956;23.722;2023-07-31T03:00:34;31.50;26.20
80212;DHT22;70434;37.956;23.722;2023-07-31T03:03:02;31.50;26.30
80212;DHT22;70434;37.956;23.722;2023-07-31T03:05:28;31.50;26.50
80212;DHT22;70434;37.956;23.722;2023-07-31T03:07:54;31.50;26.70
80212;DHT22;70434;37.956;23.722;2023-07-31T03:10:20;31.50;26.70
80212;DHT22;70434;37.956;23.722;2023-07-31T03:12:48;31.50;27.00
80212;DHT22;70434;37.956;23.722;2023-07-31T03:15:14;31.40;27.10
80212;DHT22;70434;37.956;23.722;2023-07-31T03:17:40;31.40;27.10
80212;DHT22;70434;37.956;23.722;2023-07-31T03:20:06;31.40;27.10
80212;DHT22;70434;37.956;23.722;2023-07-31T03:22:32;31.40;27.20
80212;DHT22;70434;37.956;23.722;2023-07-31T03:24:57;31.30;27.20
80212;DHT22;70434;37.956;23.722;2023-07-31T03:27:23;31.40;27.40
80212;DHT22;70434;37.956;23.722;2023-07-31T03:29:49;31.40;27.30
80212;DHT22;70434;37.956;23.722;2023-07-31T03:32:16;31.30;27.20
80212;DHT22;70434;37.956;23.722;2023-07-31T03:34:42;31.30;27.10
80212;DHT22;70434;37.956;23.722;2023-07-31T03:37:08;31.20;27.10
80212;DHT22;70434;37.956;23.722;2023-07-31T03:39:35;31.10;27.20
80212;DHT22;70434;37.956;23.722;2023-07-31T03:42:00;31.10;27.20
80212;DHT22;70434;37.956;23.722;2023-07-31T03:44:26;31.10;27.50
80212;DHT22;70434;37.956;23.722;2023-07-31T03:46:52;31.10;27.50
80212;DHT22;70434;37.956;23.722;2023-07-31T03:49:18;31.10;27.70
80212;DHT22;70434;37.956;23.722;2023-07-31T03:51:43;31.10;27.80
80212;DHT22;70434;37.956;23.722;2023-07-31T03:54:10;31.10;27.90
80212;DHT22;70434;37.956;23.722;2023-07-31T03:56:35;31.10;27.90
80212;DHT22;70434;37.956;23.722;2023-07-31T03:59:03;31.20;27.80
80212;DHT22;70434;37.956;23.722;2023-07-31T04:01:28;31.20;27.80
80212;DHT22;70434;37.956;23.722;2023-07-31T04:03:54;31.20;27.80
80212;DHT22;70434;37.956;23.722;2023-07-31T04:06:20;31.20;27.90
80212;DHT22;70434;37.956;23.722;2023-07-31T04:08:46;31.20;28.20
80212;DHT22;70434;37.956;23.722;2023-07-31T04:11:12;31.30;28.30
80212;DHT22;70434;37.956;23.722;2023-07-31T04:13:38;31.30;28.30
80212;DHT22;70434;37.956;23.722;2023-07-31T04:16:04;31.30;28.30
80212;DHT22;70434;37.956;23.722;2023-07-31T04:18:31;31.20;28.60
80212;DHT22;70434;37.956;23.722;2023-07-31T04:20:58;31.20;29.50
80212;DHT22;70434;37.956;23.722;2023-07-31T04:23:24;31.20;28.40
80212;DHT22;70434;37.956;23.722;2023-07-31T04:25:50;31.10;28.40
80212;DHT22;70434;37.956;23.722;2023-07-31T04:28:16;31.10;28.50
80212;DHT22;70434;37.956;23.722;2023-07-31T04:30:42;31.20;28.70
80212;DHT22;70434;37.956;23.722;2023-07-31T04:33:07;31.10;28.60
80212;DHT22;70434;37.956;23.722;2023-07-31T04:35:33;31.20;28.80
80212;DHT22;70434;37.956;23.722;2023-07-31T04:37:59;31.20;29.00
80212;DHT22;70434;37.956;23.722;2023-07-31T04:40:25;31.20;29.00
80212;DHT22;70434;37.956;23.722;2023-07-31T04:42:51;31.20;29.00
80212;DHT22;70434;37.956;23.722;2023-07-31T04:45:19;31.30;29.10
80212;DHT22;70434;37.956;23.722;2023-07-31T04:47:44;31.30;29.40
80212;DHT22;70434;37.956;23.722;2023-07-31T04:50:10;31.30;29.80
80212;DHT22;70434;37.956;23.722;2023-07-31T04:52:36;31.30;29.90
80212;DHT22;70434;37.956;23.722;2023-07-31T04:55:02;31.40;30.00
80212;DHT22;70434;37.956;23.722;2023-07-31T04:57:28;31.40;29.40
80212;DHT22;70434;37.956;23.722;2023-07-31T04:59:54;31.40;29.20
80212;DHT22;70434;37.956;23.722;2023-07-31T05:02:19;31.50;28.80
80212;DHT22;70434;37.956;23.722;2023-07-31T05:04:45;31.50;28.60
80212;DHT22;70434;37.956;23.722;2023-07-31T05:07:11;31.50;28.60
80212;DHT22;70434;37.956;23.722;2023-07-31T05:09:36;31.50;28.50
80212;DHT22;70434;37.956;23.722;2023-07-31T05:12:04;31.50;28.30
80212;DHT22;70434;37.956;23.722;2023-07-31T05:14:31;31.60;28.20
80212;DHT22;70434;37.956;23.722;2023-07-31T05:16:56;31.70;28.30
80212;DHT22;70434;37.956;23.722;2023-07-31T05:19:22;31.70;28.10
80212;DHT22;70434;37.956;23.722;2023-07-31T05:21:48;31.80;28.00
80212;DHT22;70434;37.956;23.722;2023-07-31T05:24:14;31.80;28.00
80212;DHT22;70434;37.956;23.722;2023-07-31T05:26:42;31.80;28.10
80212;DHT22;70434;37.956;23.722;2023-07-31T05:29:07;31.90;28.20
80212;DHT22;70434;37.956;23.722;2023-07-31T05:31:33;31.80;28.10
80212;DHT22;70434;37.956;23.722;2023-07-31T05:33:59;31.90;28.30
80212;DHT22;70434;37.956;23.722;2023-07-31T05:36:25;31.90;28.20
80212;DHT22;70434;37.956;23.722;2023-07-31T05:38:50;31.90;28.40
80212;DHT22;70434;37.956;23.722;2023-07-31T05:41:16;31.80;28.60
80212;DHT22;70434;37.956;23.722;2023-07-31T05:43:43;31.80;28.20
80212;DHT22;70434;37.956;23.722;2023-07-31T05:46:09;31.90;27.80
80212;DHT22;70434;37.956;23.722;2023-07-31T05:48:35;32.00;27.40
80212;DHT22;70434;37.956;23.722;2023-07-31T05:51:03;32.10;27.30
80212;DHT22;70434;37.956;23.722;2023-07-31T05:53:29;32.00;27.20
80212;DHT22;70434;37.956;23.722;2023-07-31T05:55:55;32.10;27.20
80212;DHT22;70434;37.956;23.722;2023-07-31T05:58:21;32.10;27.00
80212;DHT22;70434;37.956;23.722;2023-07-31T06:00:47;32.10;27.10
80212;DHT22;70434;37.956;23.722;2023-07-31T06:03:12;32.10;27.20
80212;DHT22;70434;37.956;23.722;2023-07-31T06:05:38;32.10;26.60
80212;DHT22;70434;37.956;23.722;2023-07-31T06:08:04;32.10;26.70
80212;DHT22;70434;37.956;23.722;2023-07-31T06:10:30;32.20;26.70
80212;DHT22;70434;37.956;23.722;2023-07-31T06:12:55;32.20;27.00
80212;DHT22;70434;37.956;23.722;2023-07-31T06:15:22;32.30;27.00
80212;DHT22;70434;37.956;23.722;2023-07-31T06:17:48;32.40;26.50
80212;DHT22;70434;37.956;23.722;2023-07-31T06:20:16;32.40;26.20
80212;DHT22;70434;37.956;23.722;2023-07-31T06:22:42;32.40;26.30
80212;DHT22;70434;37.956;23.722;2023-07-31T06:25:10;32.50;26.10
80212;DHT22;70434;37.956;23.722;2023-07-31T06:27:36;32.50;26.20
80212;DHT22;70434;37.956;23.722;2023-07-31T06:30:01;32.50;26.60
80212;DHT22;70434;37.956;23.722;2023-07-31T06:32:27;32.50;26.60
80212;DHT22;70434;37.956;23.722;2023-07-31T06:34:53;32.60;26.40
80212;DHT22;70434;37.956;23.722;2023-07-31T06:37:21;32.60;26.10
80212;DHT22;70434;37.956;23.722;2023-07-31T06:39:47;32.70;25.60
80212;DHT22;70434;37.956;23.722;2023-07-31T06:42:15;32.80;25.60
80212;DHT22;70434;37.956;23.722;2023-07-31T06:44:41;32.90;25.70
80212;DHT22;70434;37.956;23.722;2023-07-31T06:47:08;32.90;25.50
80212;DHT22;70434;37.956;23.722;2023-07-31T06:49:34;33.00;25.40
80212;DHT22;70434;37.956;23.722;2023-07-31T06:51:59;33.00;25.80
80212;DHT22;70434;37.956;23.722;2023-07-31T06:54:25;33.10;25.70
80212;DHT22;70434;37.956;23.722;2023-07-31T06:56:51;33.20;25.40
80212;DHT22;70434;37.956;23.722;2023-07-31T06:59:17;33.10;25.60
80212;DHT22;70434;37.956;23.722;2023-07-31T07:01:42;33.00;25.60
80212;DHT22;70434;37.956;23.722;2023-07-31T07:04:08;33.10;25.70
80212;DHT22;70434;37.956;23.722;2023-07-31T07:06:34;33.20;25.60
80212;DHT22;70434;37.956;23.722;2023-07-31T07:08:59;33.30;25.40
80212;DHT22;70434;37.956;23.722;2023-07-31T07:11:25;33.40;25.10
80212;DHT22;70434;37.956;23.722;2023-07-31T07:13:51;33.50;25.30
80212;DHT22;70434;37.956;23.722;2023-07-31T07:16:20;33.50;25.30
80212;DHT22;70434;37.956;23.722;2023-07-31T07:18:46;33.60;24.80
80212;DHT22;70434;37.956;23.722;2023-07-31T07:21:11;33.60;24.60
80212;DHT22;70434;37.956;23.722;2023-07-31T07:23:43;33.70;24.60
80212;DHT22;70434;37.956;23.722;2023-07-31T07:26:09;33.80;24.70
80212;DHT22;70434;37.956;23.722;2023-07-31T07:28:34;33.90;24.40
80212;DHT22;70434;37.956;23.722;2023-07-31T07:31:02;33.90;24.50
80212;DHT22;70434;37.956;23.722;2023-07-31T07:33:28;34.00;24.50
80212;DHT22;70434;37.956;23.722;2023-07-31T07:35:54;34.10;24.20
80212;DHT22;70434;37.956;23.722;2023-07-31T07:38:20;34.10;24.00
80212;DHT22;70434;37.956;23.722;2023-07-31T07:40:46;34.20;24.10
80212;DHT22;70434;37.956;23.722;2023-07-31T07:43:15;34.20;23.90
80212;DHT22;70434;37.956;23.722;2023-07-31T07:45:41;34.20;23.70
80212;DHT22;70434;37.956;23.722;2023-07-31T07:48:07;34.20;23.60
80212;DHT22;70434;37.956;23.722;2023-07-31T07:50:33;34.30;23.80
80212;DHT22;70434;37.956;23.722;2023-07-31T07:52:58;34.30;23.50
80212;DHT22;70434;37.956;23.722;2023-07-31T07:55:24;34.40;23.50
80212;DHT22;70434;37.956;23.722;2023-07-31T07:57:50;34.40;23.60
80212;DHT22;70434;37.956;23.722;2023-07-31T08:00:16;34.40;23.60
80212;DHT22;70434;37.956;23.722;2023-07-31T08:02:43;34.50;23.60
80212;DHT22;70434;37.956;23.722;2023-07-31T08:05:09;34.50;23.40
80212;DHT22;70434;37.956;23.722;2023-07-31T08:07:35;34.60;23.20
80212;DHT22;70434;37.956;23.722;2023-07-31T08:10:04;34.70;23.10
80212;DHT22;70434;37.956;23.722;2023-07-31T08:12:30;34.70;23.00
80212;DHT22;70434;37.956;23.722;2023-07-31T08:14:55;34.60;23.10
80212;DHT22;70434;37.956;23.722;2023-07-31T08:17:21;34.60;23.10
80212;DHT22;70434;37.956;23.722;2023-07-31T08:19:47;34.70;23.30
80212;DHT22;70434;37.956;23.722;2023-07-31T08:22:12;34.70;23.30
80212;DHT22;70434;37.956;23.722;2023-07-31T08:24:38;34.60;23.10
80212;DHT22;70434;37.956;23.722;2023-07-31T08:27:06;34.50;23.30
80212;DHT22;70434;37.956;23.722;2023-07-31T08:29:32;34.50;23.40
80212;DHT22;70434;37.956;23.722;2023-07-31T08:31:57;34.60;23.40
80212;DHT22;70434;37.956;23.722;2023-07-31T08:34:23;34.80;23.40
80212;DHT22;70434;37.956;23.722;2023-07-31T08:36:49;34.90;23.20
80212;DHT22;70434;37.956;23.722;2023-07-31T08:39:14;35.00;23.00
80212;DHT22;70434;37.956;23.722;2023-07-31T08:41:40;35.10;23.10
80212;DHT22;70434;37.956;23.722;2023-07-31T08:44:07;35.10;22.80
80212;DHT22;70434;37.956;23.722;2023-07-31T08:46:33;35.10;23.00
80212;DHT22;70434;37.956;23.722;2023-07-31T08:48:59;35.20;23.50
80212;DHT22;70434;37.956;23.722;2023-07-31T08:51:26;35.30;23.30
80212;DHT22;70434;37.956;23.722;2023-07-31T08:53:53;35.30;23.10
80212;DHT22;70434;37.956;23.722;2023-07-31T08:56:19;35.40;23.00
80212;DHT22;70434;37.956;23.722;2023-07-31T08:58:45;35.40;22.90
80212;DHT22;70434;37.956;23.722;2023-07-31T09:01:12;35.40;22.90
80212;DHT22;70434;37.956;23.722;2023-07-31T09:03:39;35.50;22.90
80212;DHT22;70434;37.956;23.722;2023-07-31T09:06:06;35.60;27.30
80212;DHT22;70434;37.956;23.722;2023-07-31T09:08:33;35.60;26.50
80212;DHT22;70434;37.956;23.722;2023-07-31T09:11:00;35.60;23.80
80212;DHT22;70434;37.956;23.722;2023-07-31T09:13:31;35.70;22.80
80212;DHT22;70434;37.956;23.722;2023-07-31T09:15:57;35.70;22.80
80212;DHT22;70434;37.956;23.722;2023-07-31T09:18:23;35.70;24.10
80212;DHT22;70434;37.956;23.722;2023-07-31T09:21:07;35.80;27.60
80212;DHT22;70434;37.956;23.722;2023-07-31T09:23:46;35.90;28.20
80212;DHT22;70434;37.956;23.722;2023-07-31T09:26:36;35.80;29.00
80212;DHT22;70434;37.956;23.722;2023-07-31T09:29:07;35.80;29.50
80212;DHT22;70434;37.956;23.722;2023-07-31T09:31:43;35.70;29.70
80212;DHT22;70434;37.956;23.722;2023-07-31T09:34:10;35.70;29.70
80212;DHT22;70434;37.956;23.722;2023-07-31T09:36:44;35.50;29.50
80212;DHT22;70434;37.956;23.722;2023-07-31T09:39:11;35.50;29.60
80212;DHT22;70434;37.956;23.722;2023-07-31T09:41:38;35.50;30.20
80212;DHT22;70434;37.956;23.722;2023-07-31T09:44:04;35.40;28.70
80212;DHT22;70434;37.956;23.722;2023-07-31T09:46:30;35.40;28.30
80212;DHT22;70434;37.956;23.722;2023-07-31T09:49:11;35.30;29.30
80212;DHT22;70434;37.956;23.722;2023-07-31T09:51:38;35.30;30.00
80212;DHT22;70434;37.956;23.722;2023-07-31T09:54:12;35.30;30.30
80212;DHT22;70434;37.956;23.722;2023-07-31T09:56:45;35.30;30.30
80212;DHT22;70434;37.956;23.722;2023-07-31T09:59:16;35.30;29.80
80212;DHT22;70434;37.956;23.722;2023-07-31T10:01:43;35.40;29.40
80212;DHT22;70434;37.956;23.722;2023-07-31T10:04:10;35.40;29.90
80212;DHT22;70434;37.956;23.722;2023-07-31T10:06:38;35.30;30.00
80212;DHT22;70434;37.956;23.722;2023-07-31T10:09:09;35.20;29.60
80212;DHT22;70434;37.956;23.722;2023-07-31T10:11:45;35.10;29.80
80212;DHT22;70434;37.956;23.722;2023-07-31T10:14:18;35.20;29.40
80212;DHT22;70434;37.956;23.722;2023-07-31T10:16:44;35.20;30.00
80212;DHT22;70434;37.956;23.722;2023-07-31T10:19:11;35.30;30.90
80212;DHT22;70434;37.956;23.722;2023-07-31T10:21:37;35.30;30.40
80212;DHT22;70434;37.956;23.722;2023-07-31T10:24:07;35.30;29.40
80212;DHT22;70434;37.956;23.722;2023-07-31T10:26:35;35.30;28.90
80212;DHT22;70434;37.956;23.722;2023-07-31T10:29:05;35.30;28.70
80212;DHT22;70434;37.956;23.722;2023-07-31T10:31:32;35.30;28.40
80212;DHT22;70434;37.956;23.722;2023-07-31T10:33:59;35.30;28.00
80212;DHT22;70434;37.956;23.722;2023-07-31T10:36:26;35.30;27.60
80212;DHT22;70434;37.956;23.722;2023-07-31T10:38:52;35.30;26.70
80212;DHT22;70434;37.956;23.722;2023-07-31T10:41:30;35.40;26.90
80212;DHT22;70434;37.956;23.722;2023-07-31T10:44:02;35.40;27.00
80212;DHT22;70434;37.956;23.722;2023-07-31T10:46:30;35.40;26.20
80212;DHT22;70434;37.956;23.722;2023-07-31T10:49:03;35.40;26.50
80212;DHT22;70434;37.956;23.722;2023-07-31T10:51:35;35.40;26.80
80212;DHT22;70434;37.956;23.722;2023-07-31T10:54:11;35.60;27.10
80212;DHT22;70434;37.956;23.722;2023-07-31T10:56:38;35.60;27.90
80212;DHT22;70434;37.956;23.722;2023-07-31T10:59:06;35.60;26.80
80212;DHT22;70434;37.956;23.722;2023-07-31T11:01:54;35.70;27.30
80212;DHT22;70434;37.956;23.722;2023-07-31T11:04:26;35.70;27.30
80212;DHT22;70434;37.956;23.722;2023-07-31T11:07:00;35.80;27.10
80212;DHT22;70434;37.956;23.722;2023-07-31T11:09:30;35.90;27.20
80212;DHT22;70434;37.956;23.722;2023-07-31T11:11:58;35.90;27.80
80212;DHT22;70434;37.956;23.722;2023-07-31T11:14:26;35.90;28.50
80212;DHT22;70434;37.956;23.722;2023-07-31T11:16:52;35.90;28.00
80212;DHT22;70434;37.956;23.722;2023-07-31T11:19:24;36.00;28.00
80212;DHT22;70434;37.956;23.722;2023-07-31T11:21:52;36.00;28.20
80212;DHT22;70434;37.956;23.722;2023-07-31T11:24:18;36.10;28.30
80212;DHT22;70434;37.956;23.722;2023-07-31T11:26:54;36.10;28.00
80212;DHT22;70434;37.956;23.722;2023-07-31T11:29:20;36.30;27.80
80212;DHT22;70434;37.956;23.722;2023-07-31T11:31:46;36.30;27.00
80212;DHT22;70434;37.956;23.722;2023-07-31T11:34:13;36.40;26.40
80212;DHT22;70434;37.956;23.722;2023-07-31T11:36:39;36.50;26.40
80212;DHT22;70434;37.956;23.722;2023-07-31T11:39:08;36.60;26.20
80212;DHT22;70434;37.956;23.722;2023-07-31T11:41:35;36.70;27.10
80212;DHT22;70434;37.956;23.722;2023-07-31T11:44:01;36.80;26.80
80212;DHT22;70434;37.956;23.722;2023-07-31T11:46:30;36.90;27.30
80212;DHT22;70434;37.956;23.722;2023-07-31T11:48:59;37.10;24.80
80212;DHT22;70434;37.956;23.722;2023-07-31T11:51:26;37.00;25.20
80212;DHT22;70434;37.956;23.722;2023-07-31T11:53:56;37.00;24.80
80212;DHT22;70434;37.956;23.722;2023-07-31T11:56:23;37.00;24.70
80212;DHT22;70434;37.956;23.722;2023-07-31T11:58:55;37.00;24.50
80212;DHT22;70434;37.956;23.722;2023-07-31T12:01:22;37.10;24.50
80212;DHT22;70434;37.956;23.722;2023-07-31T12:03:51;37.20;24.40
80212;DHT22;70434;37.956;23.722;2023-07-31T12:06:17;37.40;24.40
80212;DHT22;70434;37.956;23.722;2023-07-31T12:08:43;37.50;24.20
80212;DHT22;70434;37.956;23.722;2023-07-31T12:11:09;37.60;24.00
80212;DHT22;70434;37.956;23.722;2023-07-31T12:13:35;37.70;24.20
80212;DHT22;70434;37.956;23.722;2023-07-31T12:16:02;37.70;23.90
80212;DHT22;70434;37.956;23.722;2023-07-31T12:18:33;37.80;23.70
80212;DHT22;70434;37.956;23.722;2023-07-31T12:21:02;37.90;23.80
80212;DHT22;70434;37.956;23.722;2023-07-31T12:23:30;37.90;24.20
80212;DHT22;70434;37.956;23.722;2023-07-31T12:28:38;38.10;23.90
80212;DHT22;70434;37.956;23.722;2023-07-31T12:31:04;38.10;23.70
80212;DHT22;70434;37.956;23.722;2023-07-31T12:33:35;38.20;23.70
80212;DHT22;70434;37.956;23.722;2023-07-31T12:36:03;38.30;23.50
80212;DHT22;70434;37.956;23.722;2023-07-31T12:38:29;38.30;23.80
80212;DHT22;70434;37.956;23.722;2023-07-31T12:40:55;38.20;24.30
80212;DHT22;70434;37.956;23.722;2023-07-31T12:43:21;38.20;24.10
80212;DHT22;70434;37.956;23.722;2023-07-31T12:45:46;38.30;24.10
80212;DHT22;70434;37.956;23.722;2023-07-31T12:48:13;38.30;24.10
80212;DHT22;70434;37.956;23.722;2023-07-31T12:50:39;38.40;24.20
80212;DHT22;70434;37.956;23.722;2023-07-31T12:53:05;38.40;24.30
80212;DHT22;70434;37.956;23.722;2023-07-31T12:55:31;38.40;24.40
80212;DHT22;70434;37.956;23.722;2023-07-31T12:58:00;38.30;24.30
80212;DHT22;70434;37.956;23.722;2023-07-31T13:00:26;38.30;24.40
80212;DHT22;70434;37.956;23.722;2023-07-31T13:02:52;38.20;24.40
80212;DHT22;70434;37.956;23.722;2023-07-31T13:05:17;38.30;24.40
80212;DHT22;70434;37.956;23.722;2023-07-31T13:07:45;38.20;24.50
80212;DHT22;70434;37.956;23.722;2023-07-31T13:10:11;38.20;24.60
80212;DHT22;70434;37.956;23.722;2023-07-31T13:12:37;38.20;24.50
80212;DHT22;70434;37.956;23.722;2023-07-31T13:15:04;38.30;24.70
80212;DHT22;70434;37.956;23.722;2023-07-31T13:17:30;38.30;24.80
80212;DHT22;70434;37.956;23.722;2023-07-31T13:19:55;38.20;25.20
80212;DHT22;70434;37.956;23.722;2023-07-31T13:22:21;38.10;25.30
80212;DHT22;70434;37.956;23.722;2023-07-31T13:24:47;38.00;25.40
80212;DHT22;70434;37.956;23.722;2023-07-31T13:27:13;38.10;25.30
80212;DHT22;70434;37.956;23.722;2023-07-31T13:29:42;38.20;25.10
80212;DHT22;70434;37.956;23.722;2023-07-31T13:32:08;38.30;25.00
80212;DHT22;70434;37.956;23.722;2023-07-31T13:34:33;38.40;25.00
80212;DHT22;70434;37.956;23.722;2023-07-31T13:36:59;38.50;25.30
80212;DHT22;70434;37.956;23.722;2023-07-31T13:39:25;38.50;25.30
80212;DHT22;70434;37.956;23.722;2023-07-31T13:41:51;38.60;25.30
80212;DHT22;70434;37.956;23.722;2023-07-31T13:44:16;38.50;25.50
80212;DHT22;70434;37.956;23.722;2023-07-31T13:46:44;38.60;25.20
80212;DHT22;70434;37.956;23.722;2023-07-31T13:49:10;38.70;25.00
80212;DHT22;70434;37.956;23.722;2023-07-31T13:51:36;38.70;25.30
80212;DHT22;70434;37.956;23.722;2023-07-31T13:54:03;38.60;25.30
80212;DHT22;70434;37.956;23.722;2023-07-31T13:56:29;38.50;25.50
80212;DHT22;70434;37.956;23.722;2023-07-31T13:58:54;38.50;25.80
80212;DHT22;70434;37.956;23.722;2023-07-31T14:01:20;38.30;26.00
80212;DHT22;70434;37.956;23.722;2023-07-31T14:03:46;38.30;25.90
80212;DHT22;70434;37.956;23.722;2023-07-31T14:06:11;38.40;25.90
80212;DHT22;70434;37.956;23.722;2023-07-31T14:08:37;38.50;25.90
80212;DHT22;70434;37.956;23.722;2023-07-31T14:11:03;38.40;26.20
80212;DHT22;70434;37.956;23.722;2023-07-31T14:13:28;38.50;26.10
80212;DHT22;70434;37.956;23.722;2023-07-31T14:15:54;38.50;26.00
80212;DHT22;70434;37.956;23.722;2023-07-31T14:18:20;38.50;25.90
80212;DHT22;70434;37.956;23.722;2023-07-31T14:20:48;38.60;25.70
80212;DHT22;70434;37.956;23.722;2023-07-31T14:23:14;38.60;25.60
80212;DHT22;70434;37.956;23.722;2023-07-31T14:25:41;38.70;25.30
80212;DHT22;70434;37.956;23.722;2023-07-31T14:28:09;38.80;25.10
80212;DHT22;70434;37.956;23.722;2023-07-31T14:30:34;38.80;25.10
80212;DHT22;70434;37.956;23.722;2023-07-31T14:33:00;38.70;25.30
80212;DHT22;70434;37.956;23.722;2023-07-31T14:35:27;38.60;25.40
80212;DHT22;70434;37.956;23.722;2023-07-31T14:37:53;38.60;25.40
80212;DHT22;70434;37.956;23.722;2023-07-31T14:40:24;38.60;25.30
80212;DHT22;70434;37.956;23.722;2023-07-31T14:42:50;38.60;25.30
80212;DHT22;70434;37.956;23.722;2023-07-31T14:45:16;38.60;25.50
80212;DHT22;70434;37.956;23.722;2023-07-31T14:47:41;38.50;25.50
80212;DHT22;70434;37.956;23.722;2023-07-31T14:50:07;38.50;25.40
80212;DHT22;70434;37.956;23.722;2023-07-31T14:52:33;38.60;25.30
80212;DHT22;70434;37.956;23.722;2023-07-31T14:54:59;38.60;25.40
80212;DHT22;70434;37.956;23.722;2023-07-31T14:57:25;38.60;25.10
80212;DHT22;70434;37.956;23.722;2023-07-31T14:59:51;38.80;25.10
80212;DHT22;70434;37.956;23.722;2023-07-31T15:02:16;38.80;24.80
80212;DHT22;70434;37.956;23.722;2023-07-31T15:04:42;38.80;25.00
80212;DHT22;70434;37.956;23.722;2023-07-31T15:07:08;38.80;24.70
80212;DHT22;70434;37.956;23.722;2023-07-31T15:09:33;38.90;24.80
80212;DHT22;70434;37.956;23.722;2023-07-31T15:12:01;38.90;24.90
80212;DHT22;70434;37.956;23.722;2023-07-31T15:14:27;39.00;24.50
80212;DHT22;70434;37.956;23.722;2023-07-31T15:16:53;39.00;24.40
80212;DHT22;70434;37.956;23.722;2023-07-31T15:19:19;39.00;24.50
80212;DHT22;70434;37.956;23.722;2023-07-31T15:21:45;39.00;24.70